createdAt,value
2022-11-14T00:01:31.558Z,99355.28
2022-11-14T00:07:27.879Z,99345.94
2022-11-14T00:10:22.622Z,99349.53
2022-11-14T00:13:18.488Z,99376.25
2022-11-14T00:16:19.168Z,99376.81
2022-11-14T00:19:06.615Z,99364.13
2022-11-14T00:21:54.959Z,99368.53
2022-11-14T00:24:58.266Z,99364.13
2022-11-14T00:27:47.893Z,99371.31
2022-11-14T00:30:35.393Z,99369.38
2022-11-14T00:33:22.298Z,99363.00
2022-11-14T00:36:19.119Z,99380.13
2022-11-14T00:39:14.561Z,99366.06
2022-11-14T00:42:09.755Z,99355.88
2022-11-14T00:45:00.862Z,99363.03
2022-11-14T00:47:56.736Z,99359.72
2022-11-14T00:50:49.447Z,99357.50
2022-11-14T00:53:39.651Z,99359.72
2022-11-14T00:56:35.781Z,99361.09
2022-11-14T00:59:25.613Z,99348.41
2022-11-14T01:02:15.217Z,99316.66
2022-11-14T01:05:03.096Z,99338.47
2022-11-14T01:07:50.635Z,99342.31
2022-11-14T01:10:42.209Z,99358.63
2022-11-14T01:13:33.308Z,99344.00
2022-11-14T01:16:23.627Z,99349.22
2022-11-14T01:19:19.644Z,99341.50
2022-11-14T01:22:14.869Z,99341.50
2022-11-14T01:25:11.617Z,99339.31
2022-11-14T01:28:01.373Z,99334.88
2022-11-14T01:30:52.584Z,99332.69
2022-11-14T01:33:46.662Z,99345.63
2022-11-14T01:39:40.679Z,99332.38
2022-11-14T01:42:29.856Z,99327.72
2022-11-14T01:46:02.095Z,99332.38
2022-11-14T01:55:51.999Z,99315.03
2022-11-14T01:58:53.128Z,99299.00
2022-11-14T02:01:53.727Z,99302.34
2022-11-14T02:04:47.273Z,99312.00
2022-11-14T02:07:48.609Z,99304.00
2022-11-14T02:10:35.227Z,99300.97
2022-11-14T02:13:27.302Z,99312.53
2022-11-14T02:16:14.200Z,99299.59
2022-11-14T02:19:03.992Z,99291.88
2022-11-14T02:21:50.349Z,99301.78
2022-11-14T02:24:42.467Z,99302.63
2022-11-14T02:27:33.280Z,99288.28
2022-11-14T02:30:32.390Z,99283.84
2022-11-14T02:33:21.133Z,99281.94
2022-11-14T02:36:20.741Z,99274.22
2022-11-14T02:39:12.628Z,99281.09
2022-11-14T02:42:01.372Z,99276.13
2022-11-14T02:44:48.293Z,99279.19
2022-11-14T02:47:37.938Z,99282.19
2022-11-14T02:50:27.145Z,99283.00
2022-11-14T02:53:16.919Z,99279.97
2022-11-14T02:56:03.044Z,99284.94
2022-11-14T02:58:52.279Z,99261.81
2022-11-14T03:01:40.565Z,99263.72
2022-11-14T03:04:37.464Z,99285.22
2022-11-14T03:07:30.208Z,99288.81
2022-11-14T03:10:20.320Z,99293.25
2022-11-14T03:13:24.449Z,99261.78
2022-11-14T03:16:18.669Z,99267.56
2022-11-14T03:19:14.978Z,99290.22
2022-11-14T03:22:07.042Z,99288.56
2022-11-14T03:24:56.602Z,99285.75
2022-11-14T03:27:46.070Z,99293.25
2022-11-14T03:30:35.176Z,99302.63
2022-11-14T03:33:25.550Z,99294.06
2022-11-14T03:36:16.459Z,99295.97
2022-11-14T03:39:14.920Z,99299.00
2022-11-14T03:42:04.344Z,99294.59
2022-11-14T03:44:51.816Z,99297.09
2022-11-14T03:47:40.810Z,99300.13
2022-11-14T03:50:30.364Z,99305.09
2022-11-14T03:53:19.874Z,99302.63
2022-11-14T03:56:20.360Z,99303.44
2022-11-14T03:59:10.570Z,99275.03
2022-11-14T04:02:07.188Z,99309.22
2022-11-14T04:05:04.623Z,99295.44
2022-11-14T04:10:55.877Z,99284.13
2022-11-14T04:13:48.336Z,99288.78
2022-11-14T04:16:37.442Z,99281.06
2022-11-14T04:19:26.757Z,99272.81
2022-11-14T04:22:21.513Z,99273.38
2022-11-14T04:25:13.386Z,99269.78
2022-11-14T04:28:04.201Z,99268.41
2022-11-14T04:33:52.344Z,99198.63
2022-11-14T04:36:46.944Z,99277.78
2022-11-14T04:39:36.923Z,99279.16
2022-11-14T04:42:28.666Z,99285.22
2022-11-14T04:45:17.670Z,99280.53
2022-11-14T04:48:16.502Z,99286.03
2022-11-14T04:51:05.935Z,99280.28
2022-11-14T04:54:00.875Z,99275.59
2022-11-14T04:57:03.233Z,99245.53
2022-11-14T04:59:58.612Z,99272.81
2022-11-14T05:02:45.353Z,99282.19
2022-11-14T05:05:42.260Z,99278.03
2022-11-14T05:08:31.321Z,99277.50
2022-11-14T05:11:24.159Z,99285.50
2022-11-14T05:14:24.584Z,99276.66
2022-11-14T05:17:12.834Z,99276.09
2022-11-14T05:20:11.170Z,99268.66
2022-11-14T05:23:01.663Z,99275.28
2022-11-14T05:25:58.820Z,99275.28
2022-11-14T05:29:00.902Z,99280.53
2022-11-14T05:31:56.887Z,99265.63
2022-11-14T05:34:51.260Z,99282.44
2022-11-14T05:37:42.473Z,99242.75
2022-11-14T05:40:32.005Z,99286.06
2022-11-14T05:43:31.461Z,99290.72
2022-11-14T05:46:26.083Z,99289.34
2022-11-14T05:49:22.268Z,99290.75
2022-11-14T05:55:13.713Z,99302.88
2022-11-14T05:58:06.124Z,99300.41
2022-11-14T06:00:55.436Z,99299.84
2022-11-14T06:04:04.251Z,99296.25
2022-11-14T06:06:52.928Z,99303.97
2022-11-14T06:12:44.089Z,99298.19
2022-11-14T06:15:42.662Z,99297.09
2022-11-14T06:21:48.662Z,99305.91
2022-11-14T06:24:37.450Z,99312.25
2022-11-14T06:27:26.709Z,99279.19
2022-11-14T06:30:15.227Z,99310.59
2022-11-14T06:33:12.791Z,99315.84
2022-11-14T06:36:08.132Z,99313.63
2022-11-14T06:39:02.693Z,99313.63
2022-11-14T06:41:51.958Z,99327.44
2022-11-14T06:44:49.680Z,99332.94
2022-11-14T06:47:39.452Z,99329.63
2022-11-14T06:50:38.081Z,99313.34
2022-11-14T06:53:33.578Z,99320.22
2022-11-14T06:56:21.394Z,99326.31
2022-11-14T06:59:13.587Z,99310.56
2022-11-14T07:02:07.992Z,99312.50
2022-11-14T07:04:59.800Z,99304.22
2022-11-14T07:07:47.071Z,99297.28
2022-11-14T07:10:36.354Z,99300.31
2022-11-14T07:13:29.237Z,99303.06
2022-11-14T07:16:17.791Z,99310.78
2022-11-14T07:19:12.688Z,99319.09
2022-11-14T07:22:02.903Z,99322.66
2022-11-14T07:24:50.782Z,99323.78
2022-11-14T07:30:50.054Z,99324.84
2022-11-14T07:36:42.063Z,99323.78
2022-11-14T07:39:37.965Z,99320.19
2022-11-14T07:42:26.820Z,99320.19
2022-11-14T07:45:13.439Z,99305.56
2022-11-14T07:48:15.664Z,99310.25
2022-11-14T07:51:04.292Z,99289.50
2022-11-14T07:53:54.307Z,99292.28
2022-11-14T07:56:43.251Z,99302.72
2022-11-14T07:59:35.535Z,99289.00
2022-11-14T08:02:35.805Z,99307.47
2022-11-14T08:05:27.472Z,99302.47
2022-11-14T08:08:20.322Z,99292.22
2022-11-14T08:11:31.767Z,99285.59
2022-11-14T08:14:30.121Z,99283.94
2022-11-14T08:17:21.922Z,99296.91
2022-11-14T08:20:10.520Z,99288.91
2022-11-14T08:23:15.291Z,99273.75
2022-11-14T08:26:04.030Z,99278.44
2022-11-14T08:28:59.921Z,99278.16
2022-11-14T08:31:57.139Z,99277.31
2022-11-14T08:34:54.718Z,99256.03
2022-11-14T08:37:44.583Z,99261.03
2022-11-14T08:40:39.457Z,99261.84
2022-11-14T08:43:28.974Z,99229.84
2022-11-14T08:46:18.185Z,99236.44
2022-11-14T08:49:05.607Z,99229.28
2022-11-14T08:51:54.119Z,99244.94
2022-11-14T08:57:50.850Z,99246.84
2022-11-14T09:00:40.165Z,99243.47
2022-11-14T09:03:30.241Z,99246.44
2022-11-14T09:06:21.871Z,99231.81
2022-11-14T09:09:09.975Z,99243.06
2022-11-14T09:11:58.869Z,99221.84
2022-11-14T09:17:55.973Z,99238.16
2022-11-14T09:20:44.404Z,99231.41
2022-11-14T09:23:38.556Z,99209.16
2022-11-14T09:26:26.750Z,99191.75
2022-11-14T09:29:22.396Z,99212.44
2022-11-14T09:32:11.806Z,99207.91
2022-11-14T09:35:07.729Z,99201.78
2022-11-14T09:38:15.716Z,99188.41
2022-11-14T09:41:44.772Z,99198.03
2022-11-14T09:45:09.635Z,99187.38
2022-11-14T09:48:27.444Z,99160.06
2022-11-14T09:51:29.865Z,99175.22
2022-11-14T09:54:39.643Z,99180.53
2022-11-14T09:57:28.410Z,99174.03
2022-11-14T10:00:24.192Z,99172.94
2022-11-14T10:03:32.048Z,99171.41
2022-11-14T10:06:43.936Z,99157.63
2022-11-14T10:09:54.973Z,99176.50
2022-11-14T10:13:04.295Z,99168.06
2022-11-14T10:16:22.368Z,99187.63
2022-11-14T10:19:53.104Z,99187.47
2022-11-14T10:23:30.929Z,99184.94
2022-11-14T10:26:50.622Z,99174.44
2022-11-14T10:30:00.402Z,99167.09
2022-11-14T10:33:07.011Z,99157.50
2022-11-14T10:36:10.468Z,99151.19
2022-11-14T10:39:19.421Z,99141.78
2022-11-14T10:42:18.459Z,99129.53
2022-11-14T10:45:40.192Z,99142.84
2022-11-14T10:48:36.453Z,99154.50
2022-11-14T10:51:44.053Z,99148.75
2022-11-14T10:55:05.312Z,99133.78
2022-11-14T10:57:57.269Z,99117.47
2022-11-14T11:00:48.131Z,99113.53
2022-11-14T11:03:48.107Z,99133.66
2022-11-14T11:06:42.419Z,99127.00
2022-11-14T11:09:51.334Z,99120.94
2022-11-14T11:12:57.921Z,99128.09
2022-11-14T11:15:51.086Z,99129.50
2022-11-14T11:18:42.485Z,99141.94
2022-11-14T11:21:53.479Z,99132.00
2022-11-14T11:27:44.730Z,99122.72
2022-11-14T11:30:33.253Z,99118.66
2022-11-14T11:33:58.081Z,99129.72
2022-11-14T11:36:58.022Z,99121.06
2022-11-14T11:39:52.170Z,99121.44
2022-11-14T11:46:22.114Z,99123.00
2022-11-14T11:49:28.410Z,99123.72
2022-11-14T11:52:50.448Z,99112.34
2022-11-14T11:55:46.005Z,99119.31
2022-11-14T11:58:54.829Z,99097.88
2022-11-14T12:01:47.235Z,99110.69
2022-11-14T12:04:42.835Z,99100.75
2022-11-14T12:07:58.147Z,99094.13
2022-11-14T12:10:53.458Z,99082.53
2022-11-14T12:14:34.042Z,99083.72
2022-11-14T12:17:47.103Z,99075.28
2022-11-14T12:21:19.301Z,99070.97
2022-11-14T12:24:39.306Z,99057.63
2022-11-14T12:28:13.048Z,99047.25
2022-11-14T12:31:07.194Z,99035.88
2022-11-14T12:34:14.508Z,99030.09
2022-11-14T12:37:11.736Z,99012.72
2022-11-14T12:40:11.364Z,99005.50
2022-11-14T12:43:09.234Z,99025.22
2022-11-14T12:46:02.342Z,99021.63
2022-11-14T12:48:51.800Z,99026.81
2022-11-14T12:51:56.539Z,99031.34
2022-11-14T12:54:52.635Z,99031.56
2022-11-14T12:58:05.535Z,99032.19
2022-11-14T13:01:13.065Z,99029.41
2022-11-14T13:04:40.042Z,99033.31
2022-11-14T13:08:20.133Z,99032.25
2022-11-14T13:12:03.106Z,99028.44
2022-11-14T13:15:14.054Z,99025.72
2022-11-14T13:18:44.712Z,99041.59
2022-11-14T13:21:47.796Z,99024.75
2022-11-14T13:25:01.670Z,99034.69
2022-11-14T13:28:07.498Z,99010.59
2022-11-14T13:31:22.145Z,99024.34
2022-11-14T13:38:40.571Z,99031.78
2022-11-14T13:42:03.099Z,99034.94
2022-11-14T13:45:12.514Z,99036.91
2022-11-14T13:48:41.514Z,99033.78
2022-11-14T13:51:43.727Z,99016.94
2022-11-14T13:54:45.091Z,99039.00
2022-11-14T13:58:25.342Z,99037.13
2022-11-14T14:01:33.754Z,99029.94
2022-11-14T14:05:02.674Z,99039.66
2022-11-14T14:08:14.979Z,99038.66
2022-11-14T14:11:25.322Z,99034.50
2022-11-14T14:14:48.747Z,99019.78
2022-11-14T14:18:13.140Z,99017.44
2022-11-14T14:21:29.709Z,99027.31
2022-11-14T14:24:45.620Z,99019.25
2022-11-14T14:27:47.217Z,99008.31
2022-11-14T14:30:40.810Z,99010.13
2022-11-14T14:33:27.468Z,99005.19
2022-11-14T14:36:32.863Z,98993.41
2022-11-14T14:39:26.490Z,98996.84
2022-11-14T14:42:15.467Z,98996.25
2022-11-14T14:45:06.997Z,98999.31
2022-11-14T14:48:18.053Z,98995.19
2022-11-14T14:51:08.079Z,98996.25
2022-11-14T14:53:57.993Z,98999.81
2022-11-14T14:57:00.294Z,98994.50
2022-11-14T14:59:55.590Z,98989.28
2022-11-14T15:02:54.500Z,98993.25
2022-11-14T15:05:44.594Z,98984.66
2022-11-14T15:08:44.236Z,98991.31
2022-11-14T15:11:34.719Z,98986.38
2022-11-14T15:14:31.659Z,98985.25
2022-11-14T15:17:18.048Z,98986.38
2022-11-14T15:20:21.324Z,98981.53
2022-11-14T15:23:28.605Z,98984.03
2022-11-14T15:26:22.273Z,98977.63
2022-11-14T15:29:39.430Z,98974.16
2022-11-14T15:32:34.553Z,98971.94
2022-11-14T15:35:35.043Z,98968.53
2022-11-14T15:38:47.935Z,98973.28
2022-11-14T15:41:37.934Z,98968.22
2022-11-14T15:44:36.276Z,98956.03
2022-11-14T15:47:33.557Z,98969.75
2022-11-14T15:50:39.951Z,98965.88
2022-11-14T15:53:32.777Z,98962.81
2022-11-14T15:56:27.875Z,98963.94
2022-11-14T15:59:22.662Z,98974.69
2022-11-14T16:02:33.556Z,98969.19
2022-11-14T16:05:35.261Z,98942.81
2022-11-14T16:08:23.889Z,98959.47
2022-11-14T16:11:14.084Z,98956.06
2022-11-14T16:14:16.566Z,98958.13
2022-11-14T16:17:06.129Z,98969.41
2022-11-14T16:19:53.042Z,98957.25
2022-11-14T16:22:49.017Z,98960.81
2022-11-14T16:25:35.682Z,98962.00
2022-11-14T16:28:26.217Z,98960.28
2022-11-14T16:31:19.566Z,98938.00
2022-11-14T16:34:13.730Z,98964.19
2022-11-14T16:37:03.750Z,98960.09
2022-11-14T16:39:53.111Z,98972.81
2022-11-14T16:42:42.693Z,98973.91
2022-11-14T16:45:34.464Z,98974.16
2022-11-14T16:48:21.697Z,98971.69
2022-11-14T16:51:33.108Z,98981.88
2022-11-14T16:54:18.214Z,98976.94
2022-11-14T16:57:14.282Z,98970.66
2022-11-14T17:00:10.848Z,98961.19
2022-11-14T17:02:58.055Z,98943.09
2022-11-14T17:05:52.348Z,98976.09
2022-11-14T17:08:49.057Z,98941.53
2022-11-14T17:14:45.119Z,98978.34
2022-11-14T17:17:34.784Z,98978.91
2022-11-14T17:20:29.446Z,98979.78
2022-11-14T17:23:19.866Z,98974.53
2022-11-14T17:26:10.334Z,98970.66
2022-11-14T17:28:59.875Z,98972.22
2022-11-14T17:31:52.389Z,98982.47
2022-11-14T17:34:41.477Z,98980.59
2022-11-14T17:37:28.932Z,98986.41
2022-11-14T17:40:18.129Z,98979.00
2022-11-14T17:43:10.592Z,98964.97
2022-11-14T17:46:03.883Z,98979.00
2022-11-14T17:49:00.582Z,98973.44
2022-11-14T17:51:58.349Z,98964.31
2022-11-14T17:54:48.368Z,98958.56
2022-11-14T17:57:44.631Z,98961.94
2022-11-14T18:00:33.603Z,98959.75
2022-11-14T18:03:35.080Z,98947.63
2022-11-14T18:06:36.636Z,98967.75
2022-11-14T18:09:25.913Z,98963.59
2022-11-14T18:12:15.955Z,98959.44
2022-11-14T18:15:05.075Z,98950.94
2022-11-14T18:17:52.875Z,98956.06
2022-11-14T18:20:40.800Z,98950.56
2022-11-14T18:23:35.700Z,98956.34
2022-11-14T18:26:30.111Z,98953.22
2022-11-14T18:29:22.827Z,98960.88
2022-11-14T18:32:18.396Z,98958.41
2022-11-14T18:35:13.328Z,98957.81
2022-11-14T18:38:05.369Z,98946.53
2022-11-14T18:40:57.520Z,98947.59
2022-11-14T18:43:47.835Z,98941.50
2022-11-14T18:46:41.541Z,98926.59
2022-11-14T18:49:33.967Z,98920.78
2022-11-14T18:52:23.780Z,98936.47
2022-11-14T18:55:15.809Z,98935.13
2022-11-14T18:58:03.388Z,98930.94
2022-11-14T19:00:53.556Z,98940.53
2022-11-14T19:06:43.748Z,98937.63
2022-11-14T19:12:40.118Z,98936.94
2022-11-14T19:15:35.588Z,98927.97
2022-11-14T19:18:27.845Z,98927.69
2022-11-14T19:21:24.151Z,98929.97
2022-11-14T19:24:11.360Z,98914.81
2022-11-14T19:27:03.316Z,98930.19
2022-11-14T19:29:58.922Z,98926.75
2022-11-14T19:32:47.765Z,98930.88
2022-11-14T19:35:42.638Z,98918.25
2022-11-14T19:38:31.891Z,98928.53
2022-11-14T19:41:29.432Z,98914.44
2022-11-14T19:44:17.042Z,98918.53
2022-11-14T19:47:12.250Z,98924.59
2022-11-14T19:49:59.664Z,98925.47
2022-11-14T19:52:46.874Z,98923.25
2022-11-14T19:55:36.496Z,98907.06
2022-11-14T19:58:25.984Z,98910.53
2022-11-14T20:01:20.950Z,98920.66
2022-11-14T20:04:10.337Z,98910.50
2022-11-14T20:07:05.255Z,98917.06
2022-11-14T20:09:53.042Z,98906.84
2022-11-14T20:15:42.444Z,98908.25
2022-11-14T20:18:40.571Z,98856.84
2022-11-14T20:21:32.472Z,98912.56
2022-11-14T20:24:26.505Z,98893.09
2022-11-14T20:27:22.393Z,98902.69
2022-11-14T20:30:21.132Z,98904.56
2022-11-14T20:33:09.501Z,98892.66
2022-11-14T20:36:08.739Z,98898.16
2022-11-14T20:38:59.736Z,98878.56
2022-11-14T20:41:55.995Z,98906.47
2022-11-14T20:44:45.168Z,98893.81
2022-11-14T20:47:37.791Z,98890.94
2022-11-14T20:50:27.508Z,98888.44
2022-11-14T20:53:13.734Z,98881.00
2022-11-14T20:56:15.173Z,98885.44
2022-11-14T20:59:04.477Z,98853.75
2022-11-14T21:01:53.622Z,98886.69
2022-11-14T21:04:45.090Z,98875.47
2022-11-14T21:07:37.851Z,98873.53
2022-11-14T21:10:43.356Z,98863.84
2022-11-14T21:13:51.363Z,98870.63
2022-11-14T21:16:40.115Z,98867.19
2022-11-14T21:19:29.468Z,98872.41
2022-11-14T21:22:25.389Z,98878.16
2022-11-14T21:25:15.385Z,98873.00
2022-11-14T21:28:09.410Z,98873.00
2022-11-14T21:30:56.021Z,98871.91
2022-11-14T21:33:45.458Z,98866.66
2022-11-14T21:36:45.007Z,98852.06
2022-11-14T21:39:35.313Z,98850.09
2022-11-14T21:42:28.339Z,98860.03
2022-11-14T21:45:18.094Z,98858.69
2022-11-14T21:48:20.188Z,98860.78
2022-11-14T21:51:17.787Z,98849.72
2022-11-14T21:54:07.223Z,98856.44
2022-11-14T21:56:56.427Z,98849.97
2022-11-14T21:59:52.284Z,98839.72
2022-11-14T22:03:00.676Z,98835.50
2022-11-14T22:05:52.865Z,98836.00
2022-11-14T22:08:43.775Z,98838.09
2022-11-14T22:11:40.374Z,98829.38
2022-11-14T22:14:30.424Z,98813.16
2022-11-14T22:17:22.119Z,98802.56
2022-11-14T22:20:10.807Z,98823.63
2022-11-14T22:22:57.821Z,98836.84
2022-11-14T22:25:47.357Z,98837.25
2022-11-14T22:28:47.665Z,98839.44
2022-11-14T22:31:40.459Z,98837.66
2022-11-14T22:34:30.527Z,98835.31
2022-11-14T22:37:25.418Z,98831.50
2022-11-14T22:40:22.629Z,98815.16
2022-11-14T22:43:12.040Z,98833.09
2022-11-14T22:46:03.731Z,98838.78
2022-11-14T22:48:56.001Z,98834.06
2022-11-14T22:51:51.480Z,98828.91
2022-11-14T22:54:41.460Z,98814.06
2022-11-14T22:57:30.919Z,98821.06
2022-11-14T23:00:20.661Z,98819.06
2022-11-14T23:03:20.504Z,98823.00
2022-11-14T23:06:19.277Z,98821.44
2022-11-14T23:09:08.156Z,98814.50
2022-11-14T23:11:59.710Z,98815.22
2022-11-14T23:14:50.057Z,98811.75
2022-11-14T23:17:39.060Z,98825.03
2022-11-14T23:20:27.649Z,98811.75
2022-11-14T23:23:25.036Z,98811.94
2022-11-14T23:26:18.111Z,98817.19
2022-11-14T23:29:10.214Z,98807.88
2022-11-14T23:32:05.190Z,98811.47
2022-11-14T23:35:09.779Z,98809.78
2022-11-14T23:37:57.587Z,98808.88
2022-11-14T23:40:52.348Z,98807.25
2022-11-14T23:43:44.929Z,98802.25
2022-11-14T23:46:48.160Z,98804.66
2022-11-14T23:49:45.079Z,98799.78
2022-11-14T23:52:34.885Z,98791.78
2022-11-14T23:55:23.698Z,98789.03
2022-11-14T23:58:12.826Z,98789.78
